Terminal Aerodrome Forecast
Issued by NWS Northern Indiana

Home | Current Version | Previous Version | Graphics & Text | Print | Product List | Glossary On
Versions: 1 2 3 4 5 6 7 8 9 10 11 12 13
770
FTUS43 KIWX 240528
TAFFWA
TAF
KFWA 240528Z 2406/2506 28005KT P6SM SCT090
     FM241300 34008KT P6SM BKN025
     FM241800 35009KT P6SM BKN040=

USA.gov is the U.S. government's official web portal to all federal, state and local government web resources and services.